Time;durP1;ratioP1;P1;durP2;ratioP2;P2;SDS_P1;SDS_P2;PMS_P1;PMS_P2;Temp;Humidity;BMP_temperature;BMP_pressure;BME280_temperature;BME280_humidity;BME280_pressure;Samples;Min_cycle;Max_cycle;Signal;HPM_P1;HPM_P2
2023/01/26 00:00:54;;;;;;;275.83;145.63;;;0.20;99.90;;;;;;5042587;28;20548;-83
2023/01/26 00:03:20;;;;;;;269.57;143.87;;;0.20;99.90;;;;;;5045895;28;20343;-84
2023/01/26 00:05:46;;;;;;;270.30;144.40;;;1.70;99.90;;;;;;5026141;28;20110;-84
2023/01/26 00:08:12;;;;;;;271.27;144.90;;;1.40;99.90;;;;;;5044982;28;20128;-83
2023/01/26 00:10:39;;;;;;;267.67;142.37;;;0.30;99.90;;;;;;5044658;28;20562;-83
2023/01/26 00:13:06;;;;;;;269.10;144.13;;;0.30;99.90;;;;;;5030793;28;20304;-84
2023/01/26 00:15:33;;;;;;;266.33;142.60;;;0.20;99.90;;;;;;5038870;28;20371;-83
2023/01/26 00:18:00;;;;;;;269.20;143.63;;;0.30;99.90;;;;;;5019710;28;20793;-83
2023/01/26 00:20:26;;;;;;;270.37;144.20;;;0.20;99.90;;;;;;5033884;28;20292;-83
2023/01/26 00:22:52;;;;;;;268.90;143.73;;;1.40;99.90;;;;;;5034972;28;20308;-83
2023/01/26 00:25:18;;;;;;;266.17;143.10;;;0.30;99.90;;;;;;5035578;28;20634;-82
2023/01/26 00:27:45;;;;;;;264.73;142.60;;;1.60;99.90;;;;;;5041674;28;20389;-85
2023/01/26 00:30:11;;;;;;;267.87;144.10;;;0.30;99.90;;;;;;5036402;28;20112;-82
2023/01/26 00:32:37;;;;;;;264.33;142.80;;;0.30;99.90;;;;;;5055060;28;20316;-83
2023/01/26 00:35:04;;;;;;;265.77;143.20;;;0.50;99.90;;;;;;5060591;28;20283;-83
2023/01/26 00:37:30;;;;;;;268.30;144.73;;;0.30;99.90;;;;;;5056220;28;20310;-84
2023/01/26 00:39:55;;;;;;;269.00;144.77;;;0.30;99.90;;;;;;5063183;28;20303;-83
2023/01/26 00:42:22;;;;;;;268.70;144.30;;;1.60;99.90;;;;;;5057689;28;20041;-83
2023/01/26 00:44:49;;;;;;;270.87;145.70;;;0.90;99.90;;;;;;5056098;28;20053;-83
2023/01/26 00:47:16;;;;;;;269.10;145.13;;;0.50;99.90;;;;;;5055521;28;20298;-85
2023/01/26 00:49:42;;;;;;;265.23;143.20;;;0.30;99.90;;;;;;5056002;28;20064;-84
2023/01/26 00:52:08;;;;;;;265.03;143.47;;;1.40;99.90;;;;;;5061467;28;20346;-84
2023/01/26 00:54:34;;;;;;;268.30;144.57;;;-0.10;99.90;;;;;;5055208;28;20578;-85
2023/01/26 00:57:00;;;;;;;267.47;144.00;;;0.20;99.90;;;;;;5062534;28;20329;-84
2023/01/26 00:59:25;;;;;;;264.07;142.20;;;1.20;99.90;;;;;;5058755;28;20114;-84
2023/01/26 01:01:52;;;;;;;265.90;143.57;;;0.30;99.90;;;;;;5057467;28;20492;-85
2023/01/26 01:04:18;;;;;;;266.73;143.90;;;0.60;99.90;;;;;;5061524;28;20052;-85
2023/01/26 01:06:44;;;;;;;270.57;144.97;;;0.30;99.90;;;;;;5062364;28;20291;-84
2023/01/26 01:09:10;;;;;;;268.90;145.03;;;-0.10;99.90;;;;;;5055237;28;20056;-84
2023/01/26 01:15:16;;;;;;;268.83;144.30;;;0.40;99.90;;;;;;5072832;28;20086;-83
2023/01/26 01:17:42;;;;;;;272.63;145.33;;;0.90;99.90;;;;;;5059860;28;20068;-82
2023/01/26 01:20:09;;;;;;;272.30;145.77;;;0.70;99.90;;;;;;5057088;28;20033;-82
2023/01/26 01:22:36;;;;;;;271.83;144.07;;;0.30;99.90;;;;;;5061249;28;20092;-83
2023/01/26 01:25:02;;;;;;;274.30;144.60;;;0.30;99.90;;;;;;5070188;28;20294;-82
2023/01/26 01:27:28;;;;;;;278.83;146.43;;;0.30;99.90;;;;;;5046869;28;20250;-84
2023/01/26 01:29:53;;;;;;;280.80;147.30;;;0.30;99.90;;;;;;5055735;28;20308;-86
2023/01/26 01:32:20;;;;;;;279.93;146.90;;;0.40;99.90;;;;;;5055291;28;20060;-82
2023/01/26 01:34:47;;;;;;;276.23;146.13;;;0.30;99.90;;;;;;5052010;28;20124;-82
2023/01/26 01:37:13;;;;;;;270.57;144.07;;;0.30;99.90;;;;;;5055522;28;20299;-83
2023/01/26 01:39:39;;;;;;;269.47;144.70;;;0.40;99.90;;;;;;5054448;28;20303;-84
2023/01/26 01:42:05;;;;;;;265.70;144.00;;;-0.20;99.90;;;;;;5044592;28;20291;-84
2023/01/26 01:44:33;;;;;;;265.90;144.13;;;1.60;99.90;;;;;;5058585;28;20048;-84
2023/01/26 01:47:03;;;;;;;267.00;145.20;;;0.50;99.90;;;;;;5052739;28;20051;-83
2023/01/26 01:49:43;;;;;;;266.17;144.60;;;0.90;99.90;;;;;;5046767;28;20290;-84
2023/01/26 01:52:16;;;;;;;267.13;143.80;;;0.40;99.90;;;;;;5064747;28;20359;-83
2023/01/26 01:54:47;;;;;;;267.77;143.67;;;0.40;99.90;;;;;;5061022;28;20284;-82
2023/01/26 01:57:27;;;;;;;268.10;144.97;;;1.50;99.90;;;;;;5049156;28;20354;-82
2023/01/26 02:00:08;;;;;;;268.87;144.70;;;0.50;99.90;;;;;;5064858;28;20631;-83
2023/01/26 02:02:36;;;;;;;268.53;144.93;;;0.40;99.90;;;;;;5045775;28;20299;-83
2023/01/26 02:05:12;;;;;;;266.20;144.73;;;0.50;99.90;;;;;;5042966;28;20287;-83
2023/01/26 02:07:38;;;;;;;264.83;145.23;;;0.50;99.90;;;;;;5050001;28;20647;-85
2023/01/26 02:10:17;;;;;;;264.93;144.87;;;1.00;99.90;;;;;;5072904;28;20306;-85
2023/01/26 02:12:44;;;;;;;263.20;144.93;;;0.50;99.90;;;;;;5051231;28;20276;-82
2023/01/26 02:15:10;;;;;;;258.67;144.80;;;0.50;99.90;;;;;;5063245;28;20664;-83
2023/01/26 02:17:36;;;;;;;258.40;144.43;;;0.50;99.90;;;;;;5052571;28;20313;-84
2023/01/26 02:20:08;;;;;;;259.77;145.20;;;0.50;99.90;;;;;;5060145;28;20286;-82
2023/01/26 02:23:00;;;;;;;260.57;144.70;;;0.50;99.90;;;;;;5045150;28;20378;-83
2023/01/26 02:25:48;;;;;;;263.97;146.07;;;0.60;99.90;;;;;;5036687;28;20390;-83
2023/01/26 02:28:14;;;;;;;260.50;145.60;;;0.50;99.90;;;;;;5019850;28;20441;-84
2023/01/26 02:30:40;;;;;;;262.47;145.33;;;0.50;99.90;;;;;;5032203;28;20296;-82
2023/01/26 02:33:07;;;;;;;262.77;145.90;;;0.60;99.90;;;;;;5029485;28;20630;-82
2023/01/26 02:35:33;;;;;;;262.70;146.50;;;0.50;99.90;;;;;;5028691;28;20084;-83
2023/01/26 02:37:58;;;;;;;263.03;146.97;;;0.60;99.90;;;;;;5034059;28;20890;-82
2023/01/26 02:40:47;;;;;;;265.10;147.43;;;0.60;99.90;;;;;;5036128;28;20045;-83
2023/01/26 02:43:13;;;;;;;264.50;147.57;;;1.60;99.90;;;;;;5039637;28;20033;-84
2023/01/26 02:45:40;;;;;;;264.00;147.03;;;0.60;99.90;;;;;;5038805;28;20283;-82
2023/01/26 02:48:06;;;;;;;263.03;147.23;;;0.60;99.90;;;;;;5049375;28;20036;-82
2023/01/26 02:50:33;;;;;;;259.40;146.10;;;0.60;99.90;;;;;;5050249;28;20302;-82
2023/01/26 02:52:59;;;;;;;260.53;147.43;;;1.00;99.90;;;;;;5042172;28;20657;-83
2023/01/26 02:55:26;;;;;;;262.00;148.07;;;0.60;99.90;;;;;;5030023;28;20822;-83
2023/01/26 02:57:54;;;;;;;258.07;146.67;;;0.70;99.90;;;;;;5032297;28;20379;-83
2023/01/26 03:00:23;;;;;;;260.13;146.23;;;1.70;99.90;;;;;;5042642;28;20307;-82
2023/01/26 03:02:51;;;;;;;265.97;147.20;;;0.70;99.90;;;;;;5029401;28;20311;-82
2023/01/26 03:05:17;;;;;;;264.90;146.77;;;1.50;99.90;;;;;;5025264;28;20296;-82
2023/01/26 03:07:43;;;;;;;267.50;146.40;;;0.70;99.90;;;;;;5042847;28;20350;-83
2023/01/26 03:10:09;;;;;;;266.57;145.80;;;0.70;99.90;;;;;;5048063;28;20811;-84
2023/01/26 03:12:35;;;;;;;263.07;145.67;;;0.70;99.90;;;;;;5051744;28;20040;-82
2023/01/26 03:17:45;;;;;;;267.60;146.70;;;0.70;99.90;;;;;;5045450;28;20395;-85
2023/01/26 03:28:24;;;;;;;259.63;147.50;;;0.80;99.90;;;;;;5043313;28;20372;-84
2023/01/26 03:30:52;;;;;;;255.23;145.53;;;0.80;99.90;;;;;;5047877;28;20395;-84
2023/01/26 03:33:18;;;;;;;261.73;147.47;;;1.10;99.90;;;;;;5024874;28;20684;-84
2023/01/26 03:35:44;;;;;;;253.20;145.53;;;2.10;99.90;;;;;;5026009;28;20784;-85
2023/01/26 03:38:10;;;;;;;248.90;144.73;;;0.80;99.90;;;;;;5046021;28;20287;-85
2023/01/26 03:57:03;;;;;;;248.13;144.17;;;0.90;99.90;;;;;;5045191;28;20292;-83
2023/01/26 03:59:37;;;;;;;248.33;144.33;;;1.00;99.90;;;;;;5020565;28;20439;-83
2023/01/26 04:10:21;;;;;;;267.57;147.30;;;1.00;99.90;;;;;;5035869;28;20048;-82
2023/01/26 04:23:48;;;;;;;250.87;144.93;;;1.10;99.90;;;;;;5043445;28;20552;-84
2023/01/26 04:26:15;;;;;;;249.07;145.93;;;1.10;99.90;;;;;;5040159;28;20383;-84
2023/01/26 04:28:41;;;;;;;246.67;144.43;;;1.20;99.90;;;;;;5033142;28;20448;-83
2023/01/26 04:31:06;;;;;;;254.63;146.10;;;1.40;99.90;;;;;;5041282;28;20307;-83
2023/01/26 04:33:32;;;;;;;255.60;145.83;;;0.90;99.90;;;;;;5041218;28;20087;-85
2023/01/26 04:36:05;;;;;;;278.17;152.77;;;2.70;99.90;;;;;;5032721;28;20081;-83
2023/01/26 04:38:31;;;;;;;277.67;152.10;;;1.20;99.90;;;;;;5035599;28;20080;-84
2023/01/26 04:40:57;;;;;;;276.33;152.93;;;1.30;99.90;;;;;;5047502;28;20327;-83
2023/01/26 04:43:23;;;;;;;265.80;148.87;;;1.90;99.90;;;;;;5023080;28;20543;-83
2023/01/26 04:46:04;;;;;;;261.10;148.30;;;1.30;99.90;;;;;;5040550;28;20049;-83
2023/01/26 04:48:30;;;;;;;272.23;152.27;;;1.40;99.90;;;;;;5020288;28;20464;-83
2023/01/26 04:50:58;;;;;;;259.07;149.93;;;1.30;99.90;;;;;;5025775;28;20386;-83
2023/01/26 04:53:24;;;;;;;257.93;149.43;;;1.40;99.90;;;;;;5036882;28;20295;-83
2023/01/26 04:55:50;;;;;;;245.00;146.17;;;2.20;99.90;;;;;;5026620;28;20295;-85
2023/01/26 04:58:16;;;;;;;247.43;143.60;;;1.40;99.90;;;;;;5032937;28;20312;-84
2023/01/26 05:00:42;;;;;;;247.63;144.60;;;1.70;99.90;;;;;;5044872;28;20432;-83
2023/01/26 05:03:08;;;;;;;254.07;142.73;;;1.60;99.90;;;;;;5034064;28;20048;-83
2023/01/26 05:05:38;;;;;;;238.77;142.03;;;1.70;99.90;;;;;;5032924;28;20045;-83
2023/01/26 05:08:05;;;;;;;234.57;140.15;;;1.80;99.90;;;;;;5032983;28;20038;-85
2023/01/26 05:10:31;;;;;;;227.43;139.73;;;2.40;99.90;;;;;;5047145;28;20116;-85
2023/01/26 05:12:56;;;;;;;223.95;138.07;;;2.70;99.90;;;;;;5021520;28;20314;-83
2023/01/26 05:15:22;;;;;;;206.10;133.63;;;3.00;99.90;;;;;;5017811;28;20033;-83
2023/01/26 05:17:48;;;;;;;223.35;137.30;;;3.00;99.90;;;;;;5039144;28;20045;-83
2023/01/26 05:20:14;;;;;;;211.65;137.25;;;2.30;99.90;;;;;;5042811;28;20079;-85
2023/01/26 05:22:40;;;;;;;198.20;132.20;;;1.40;99.90;;;;;;5045645;28;20515;-84
2023/01/26 05:25:05;;;;;;;194.57;131.07;;;1.90;99.90;;;;;;5026026;28;20139;-83
2023/01/26 05:27:31;;;;;;;189.10;129.90;;;2.60;99.90;;;;;;5027693;28;20486;-84
2023/01/26 05:30:01;;;;;;;204.60;135.37;;;3.70;99.90;;;;;;5024076;28;20429;-84
2023/01/26 05:32:28;;;;;;;215.73;136.93;;;2.80;99.90;;;;;;5061475;28;20106;-83
2023/01/26 05:34:53;;;;;;;210.85;135.65;;;2.10;99.90;;;;;;5058160;28;20044;-83
2023/01/26 05:37:20;;;;;;;230.50;139.43;;;3.80;99.90;;;;;;5062118;28;20060;-84
2023/01/26 05:39:45;;;;;;;216.30;136.85;;;3.90;99.90;;;;;;5055739;28;20044;-83
2023/01/26 05:42:12;;;;;;;226.07;134.35;;;3.40;99.90;;;;;;5062177;28;20484;-83
2023/01/26 05:44:38;;;;;;;210.35;134.88;;;4.20;99.90;;;;;;5056889;28;20037;-84
2023/01/26 05:47:04;;;;;;;214.50;132.40;;;4.20;99.90;;;;;;5056118;28;20044;-84
2023/01/26 05:49:30;;;;;;;217.20;133.60;;;3.80;99.90;;;;;;5052166;28;20041;-83
2023/01/26 05:51:55;;;;;;;316.55;156.38;;;2.90;99.90;;;;;;5060613;28;20060;-83
2023/01/26 05:54:21;;;;;;;335.67;157.23;;;3.90;99.90;;;;;;5060735;28;20095;-83
2023/01/26 05:56:47;;;;;;;371.77;163.63;;;5.00;99.90;;;;;;5067094;28;21686;-85
2023/01/26 05:59:13;;;;;;;343.23;163.10;;;4.00;99.90;;;;;;5060404;28;20069;-84
2023/01/26 06:01:38;;;;;;;330.50;163.03;;;4.20;99.90;;;;;;5063599;28;20052;-84
2023/01/26 06:04:04;;;;;;;319.00;158.67;;;4.10;99.90;;;;;;5060576;28;20672;-87
2023/01/26 06:06:30;;;;;;;337.63;162.90;;;5.10;99.90;;;;;;5060091;28;20045;-83
2023/01/26 06:08:57;;;;;;;304.23;156.97;;;3.80;99.90;;;;;;5057360;28;20363;-85
2023/01/26 06:11:22;;;;;;;312.37;156.50;;;4.10;99.90;;;;;;5060154;28;20045;-85
2023/01/26 06:13:48;;;;;;;321.67;158.53;;;4.90;99.90;;;;;;5070641;28;20307;-85
2023/01/26 06:16:14;;;;;;;316.47;157.00;;;4.20;99.90;;;;;;5064830;28;20037;-83
2023/01/26 06:18:39;;;;;;;311.63;155.93;;;4.70;99.90;;;;;;5056257;28;20044;-85
2023/01/26 06:21:05;;;;;;;309.43;156.30;;;3.80;99.90;;;;;;5064127;28;20036;-85
2023/01/26 06:23:31;;;;;;;315.20;157.40;;;5.00;99.90;;;;;;5066287;28;20040;-83
2023/01/26 06:26:01;;;;;;;324.77;157.30;;;4.10;99.90;;;;;;5063394;28;20507;-85
2023/01/26 06:28:28;;;;;;;318.60;157.03;;;4.90;99.90;;;;;;5055601;28;20084;-84
2023/01/26 06:31:05;;;;;;;313.23;156.23;;;4.90;99.90;;;;;;5065703;28;20303;-85
2023/01/26 06:33:33;;;;;;;311.80;157.73;;;4.10;99.90;;;;;;5066656;28;20676;-86
2023/01/26 06:36:04;;;;;;;314.30;158.67;;;4.80;99.90;;;;;;5062367;28;20345;-85
2023/01/26 06:38:30;;;;;;;307.60;157.33;;;4.00;99.90;;;;;;5063456;28;20292;-84
2023/01/26 06:41:04;;;;;;;310.87;158.20;;;4.70;99.90;;;;;;5059291;28;20314;-84
2023/01/26 06:43:33;;;;;;;310.93;157.30;;;3.90;99.90;;;;;;5067986;28;20357;-83
2023/01/26 06:45:59;;;;;;;310.47;157.17;;;3.40;99.90;;;;;;5074036;28;20291;-83
2023/01/26 06:48:27;;;;;;;317.57;159.13;;;3.80;99.90;;;;;;5064986;28;20303;-84
2023/01/26 06:50:57;;;;;;;323.60;159.33;;;3.80;99.90;;;;;;5070319;28;20049;-86
2023/01/26 06:53:33;;;;;;;320.13;157.07;;;4.00;99.90;;;;;;5068764;28;20290;-86
2023/01/26 06:55:59;;;;;;;321.17;157.70;;;4.40;99.90;;;;;;5067824;28;20287;-83
2023/01/26 06:58:25;;;;;;;312.50;155.40;;;3.80;99.90;;;;;;5066646;28;20648;-83
2023/01/26 07:00:51;;;;;;;265.80;146.10;;;3.70;99.90;;;;;;5057370;28;20056;-85
2023/01/26 07:03:17;;;;;;;218.20;137.53;;;3.70;99.90;;;;;;5062308;28;20040;-85
2023/01/26 07:05:42;;;;;;;171.88;125.25;;;3.80;99.90;;;;;;5055501;28;20808;-83
2023/01/26 07:08:08;;;;;;;268.33;142.47;;;3.60;99.90;;;;;;5057954;28;20515;-82
2023/01/26 07:10:34;;;;;;;273.83;144.20;;;3.60;99.90;;;;;;5062386;28;20510;-84
2023/01/26 07:13:01;;;;;;;251.90;138.85;;;3.00;99.90;;;;;;5056886;28;20150;-86
2023/01/26 07:15:27;;;;;;;274.65;145.57;;;4.40;99.90;;;;;;5061514;28;20060;-85
2023/01/26 07:17:53;;;;;;;302.97;154.03;;;3.60;99.90;;;;;;5060083;28;20051;-86
2023/01/26 07:20:19;;;;;;;268.17;143.48;;;4.70;99.90;;;;;;5061656;28;20043;-86
2023/01/26 07:22:45;;;;;;;275.00;145.77;;;3.50;99.90;;;;;;5064482;28;20036;-84
2023/01/26 07:25:10;;;;;;;274.93;145.73;;;3.40;99.90;;;;;;5057713;28;20040;-87
2023/01/26 07:27:36;;;;;;;272.47;145.20;;;3.40;99.90;;;;;;5068271;28;20048;-86
2023/01/26 07:30:02;;;;;;;267.10;143.93;;;3.40;99.90;;;;;;5061065;28;20481;-89
2023/01/26 07:32:28;;;;;;;270.58;144.70;;;3.50;99.90;;;;;;5062961;28;20060;-87
2023/01/26 07:34:53;;;;;;;267.88;143.35;;;2.70;99.90;;;;;;5046553;28;20041;-85
2023/01/26 07:37:19;;;;;;;257.58;143.35;;;3.10;99.90;;;;;;5045470;28;20102;-86
2023/01/26 07:39:44;;;;;;;261.27;143.77;;;3.60;99.90;;;;;;5028759;28;20041;-86
2023/01/26 07:42:11;;;;;;;258.77;144.18;;;3.50;99.90;;;;;;5021882;28;20482;-85
2023/01/26 07:44:36;;;;;;;259.03;142.70;;;3.40;99.90;;;;;;5062431;28;20397;-87
2023/01/26 07:47:02;;;;;;;242.45;140.52;;;2.70;99.90;;;;;;5027984;28;20291;-85
2023/01/26 07:49:28;;;;;;;238.10;139.20;;;4.60;99.90;;;;;;5042484;28;20378;-89
2023/01/26 07:51:53;;;;;;;130.93;110.93;;;4.10;99.90;;;;;;5040859;28;20467;-86
2023/01/26 07:54:20;;;;;;;110.75;98.15;;;2.50;99.90;;;;;;5039967;28;20470;-85
2023/01/26 07:56:49;;;;;;;111.28;98.82;;;3.30;99.90;;;;;;5036652;28;20397;-84
2023/01/26 07:59:15;;;;;;;112.88;99.97;;;3.60;99.90;;;;;;5047077;28;20053;-84
2023/01/26 08:01:41;;;;;;;96.97;87.38;;;3.40;99.90;;;;;;5066312;28;20060;-85
2023/01/26 08:04:06;;;;;;;147.93;111.75;;;3.30;99.90;;;;;;5046588;28;20040;-84
2023/01/26 08:06:32;;;;;;;117.90;98.85;;;4.10;99.90;;;;;;5062435;28;20037;-85
2023/01/26 08:08:58;;;;;;;118.32;99.97;;;3.20;99.90;;;;;;5053963;28;20466;-85
2023/01/26 08:11:24;;;;;;;165.05;118.43;;;4.30;99.90;;;;;;5047216;28;20044;-85
2023/01/26 08:13:50;;;;;;;170.88;119.65;;;3.70;99.90;;;;;;5065898;28;20485;-84
2023/01/26 08:16:16;;;;;;;111.07;96.57;;;3.00;99.90;;;;;;5063083;28;20036;-84
2023/01/26 08:18:44;;;;;;;169.65;119.55;;;4.60;99.90;;;;;;5061873;28;20045;-88
2023/01/26 08:21:11;;;;;;;106.28;94.32;;;3.20;99.90;;;;;;5061413;28;20041;-86
2023/01/26 08:23:37;;;;;;;104.05;92.90;;;3.20;99.90;;;;;;5053802;28;20053;-85
2023/01/26 08:26:07;;;;;;;159.15;115.38;;;3.80;99.90;;;;;;5054078;28;20512;-85
2023/01/26 08:28:33;;;;;;;146.13;111.93;;;4.40;99.90;;;;;;5054074;28;20041;-86
2023/01/26 08:31:04;;;;;;;93.72;84.68;;;3.50;99.90;;;;;;5054098;28;20057;-85
2023/01/26 08:33:31;;;;;;;95.88;86.40;;;3.30;99.90;;;;;;5053730;28;20048;-84
2023/01/26 08:36:01;;;;;;;98.97;88.88;;;3.40;99.90;;;;;;5052259;28;20055;-85
2023/01/26 08:38:29;;;;;;;158.25;114.30;;;4.10;99.90;;;;;;5052658;28;20396;-85
2023/01/26 08:40:55;;;;;;;158.32;115.20;;;4.50;99.90;;;;;;5053579;28;20044;-85
2023/01/26 08:43:21;;;;;;;166.27;118.80;;;3.70;99.90;;;;;;5053570;28;20045;-85
2023/01/26 08:45:46;;;;;;;158.73;115.05;;;3.60;99.90;;;;;;5053759;28;20095;-85
2023/01/26 08:48:12;;;;;;;144.43;111.38;;;3.70;99.90;;;;;;5053532;28;20520;-84
2023/01/26 08:50:38;;;;;;;135.15;107.30;;;3.80;99.90;;;;;;5053407;28;20052;-85
2023/01/26 08:53:03;;;;;;;132.90;106.78;;;4.00;99.90;;;;;;5053241;28;20044;-84
2023/01/26 08:55:31;;;;;;;128.50;104.05;;;2.70;99.90;;;;;;5053449;28;20371;-86
2023/01/26 08:57:57;;;;;;;120.65;101.07;;;4.00;99.90;;;;;;5051952;28;20048;-85
2023/01/26 09:00:24;;;;;;;117.35;100.18;;;4.80;99.90;;;;;;5053409;28;20048;-86
2023/01/26 09:02:50;;;;;;;115.95;98.20;;;4.00;99.90;;;;;;5053200;28;20117;-85
2023/01/26 09:05:17;;;;;;;117.20;99.95;;;5.20;99.90;;;;;;5052287;28;20066;-85
2023/01/26 09:07:43;;;;;;;116.95;99.30;;;4.00;99.90;;;;;;5053171;28;20037;-84
2023/01/26 09:10:09;;;;;;;117.22;99.80;;;4.50;99.90;;;;;;5051665;28;20052;-85
2023/01/26 09:12:35;;;;;;;121.72;102.40;;;4.30;99.90;;;;;;5051595;28;20493;-86
2023/01/26 09:15:00;;;;;;;125.32;103.70;;;5.40;99.90;;;;;;5051811;28;20106;-84
2023/01/26 09:17:26;;;;;;;129.90;104.88;;;4.20;99.90;;;;;;5053145;28;20095;-85
2023/01/26 09:19:52;;;;;;;125.97;105.05;;;4.80;99.90;;;;;;5052761;28;20049;-86
2023/01/26 09:22:17;;;;;;;126.28;104.65;;;4.70;99.90;;;;;;5052905;28;20482;-85
2023/01/26 09:24:43;;;;;;;117.35;100.55;;;4.80;99.90;;;;;;5052763;28;20200;-85
2023/01/26 09:27:09;;;;;;;122.70;103.05;;;4.80;99.90;;;;;;5051426;28;20048;-84
2023/01/26 09:29:34;;;;;;;124.07;103.38;;;5.80;99.90;;;;;;5053184;28;20048;-85
2023/01/26 09:32:00;;;;;;;106.93;95.18;;;4.60;99.90;;;;;;5052505;28;20127;-84
2023/01/26 09:34:27;;;;;;;102.90;92.07;;;3.60;99.90;;;;;;5052724;28;20094;-85
2023/01/26 09:36:53;;;;;;;119.82;102.07;;;5.00;99.90;;;;;;5051591;28;20045;-85
2023/01/26 09:39:18;;;;;;;117.28;100.30;;;5.40;99.90;;;;;;5052357;28;20044;-84
2023/01/26 09:42:02;;;;;;;114.38;99.55;;;6.40;99.90;;;;;;5051430;28;20048;-85
2023/01/26 09:44:32;;;;;;;114.63;99.93;;;5.30;99.90;;;;;;5051261;28;20057;-84
2023/01/26 09:47:18;;;;;;;116.65;100.85;;;6.70;99.90;;;;;;5051909;28;20045;-84
2023/01/26 09:50:07;;;;;;;113.18;99.43;;;5.30;99.90;;;;;;5052874;28;20456;-87
2023/01/26 09:52:58;;;;;;;120.55;102.75;;;5.40;99.90;;;;;;5052598;28;20045;-85
2023/01/26 09:55:24;;;;;;;114.85;100.07;;;5.50;99.90;;;;;;5051541;28;20068;-85
2023/01/26 09:58:02;;;;;;;136.27;108.70;;;5.60;99.90;;;;;;5051336;28;20102;-85
2023/01/26 10:00:44;;;;;;;135.32;108.78;;;5.70;99.90;;;;;;5051039;28;20102;-85
2023/01/26 10:03:36;;;;;;;147.27;113.03;;;5.80;99.90;;;;;;5052815;28;20064;-85
2023/01/26 10:06:14;;;;;;;147.82;112.25;;;5.80;99.90;;;;;;5051175;28;20398;-86
2023/01/26 10:08:42;;;;;;;155.80;115.40;;;7.30;99.90;;;;;;5051403;28;20382;-85
2023/01/26 10:11:23;;;;;;;182.23;123.00;;;5.90;99.90;;;;;;5052346;28;20040;-85
2023/01/26 10:14:20;;;;;;;190.02;125.47;;;6.00;99.90;;;;;;5052489;28;20385;-85
2023/01/26 10:16:47;;;;;;;;;;;6.00;99.90;;;;;;5030613;28;20056;-85
2023/01/26 10:19:30;;;;;;;194.23;126.03;;;6.70;99.90;;;;;;5030583;28;20028;-85
2023/01/26 10:22:02;;;;;;;226.60;136.13;;;6.90;99.90;;;;;;5013998;28;20050;-86
2023/01/26 10:24:29;;;;;;;198.90;130.52;;;6.40;99.90;;;;;;4997531;28;20049;-88
2023/01/26 10:26:57;;;;;;;182.55;125.50;;;6.60;99.90;;;;;;5013828;28;20445;-85
2023/01/26 10:29:22;;;;;;;176.90;123.43;;;6.80;99.90;;;;;;5030348;28;20045;-85
2023/01/26 10:31:48;;;;;;;183.02;125.68;;;7.50;99.90;;;;;;5030094;28;20117;-85
2023/01/26 10:34:25;;;;;;;156.07;115.55;;;7.20;99.90;;;;;;5030288;28;20052;-85
2023/01/26 10:36:58;;;;;;;141.45;112.70;;;6.70;99.90;;;;;;5030463;28;20053;-86
2023/01/26 10:39:23;;;;;;;161.05;117.43;;;6.70;99.90;;;;;;5013859;28;20295;-85
2023/01/26 10:42:00;;;;;;;183.98;125.75;;;6.80;99.90;;;;;;5030399;28;20125;-85
2023/01/26 10:44:33;;;;;;;166.35;119.85;;;7.10;99.90;;;;;;5013593;28;20041;-87
2023/01/26 10:47:15;;;;;;;166.45;120.22;;;7.30;99.90;;;;;;5030290;28;20111;-85
2023/01/26 10:49:41;;;;;;;138.10;107.95;;;7.00;99.90;;;;;;5030199;28;20106;-85
2023/01/26 10:52:23;;;;;;;141.73;111.95;;;7.00;99.90;;;;;;5030252;28;20042;-84
2023/01/26 10:55:10;;;;;;;119.88;101.68;;;7.10;99.90;;;;;;5051367;28;20056;-84
2023/01/26 10:57:38;;;;;;;113.68;99.30;;;7.50;99.90;;;;;;5061435;28;20124;-86
2023/01/26 11:00:27;;;;;;;111.28;98.55;;;7.00;99.90;;;;;;5059197;28;20060;-85
2023/01/26 11:03:05;;;;;;;117.40;100.45;;;6.90;99.90;;;;;;5060514;28;20083;-85
2023/01/26 11:05:30;;;;;;;118.22;101.20;;;7.00;99.90;;;;;;5063768;28;20045;-84
2023/01/26 11:08:01;;;;;;;179.15;123.07;;;7.80;99.90;;;;;;5053239;28;20068;-85
2023/01/26 11:10:27;;;;;;;358.93;167.83;;;7.00;99.90;;;;;;5058758;28;20447;-87
2023/01/26 11:13:13;;;;;;;384.43;173.37;;;7.10;99.90;;;;;;5053146;28;20357;-86
2023/01/26 11:15:42;;;;;;;374.95;167.60;;;7.10;99.90;;;;;;5053335;28;20089;-81
2023/01/26 11:18:36;;;;;;;376.65;173.27;;;7.30;99.90;;;;;;5054307;28;20436;-84
2023/01/26 11:21:08;;;;;;;450.53;175.57;;;7.40;99.90;;;;;;5053831;28;20041;-85
2023/01/26 11:23:58;;;;;;;343.87;166.60;;;7.80;99.90;;;;;;5053975;28;20516;-84
2023/01/26 11:26:49;;;;;;;307.70;157.38;;;7.60;99.90;;;;;;5064379;28;20872;-84
2023/01/26 11:29:20;;;;;;;296.02;153.90;;;7.70;99.90;;;;;;5056707;28;20632;-86
2023/01/26 11:31:49;;;;;;;195.00;130.35;;;7.70;99.90;;;;;;5055841;28;20579;-86
2023/01/26 11:34:21;;;;;;;294.60;154.15;;;7.80;99.90;;;;;;5065461;28;20083;-85
2023/01/26 11:37:12;;;;;;;225.02;135.40;;;7.60;99.90;;;;;;5054766;28;20045;-85
2023/01/26 11:39:46;;;;;;;204.50;131.98;;;8.40;99.90;;;;;;5018904;28;20131;-85
2023/01/26 11:42:17;;;;;;;221.23;137.63;;;7.70;99.90;;;;;;5038928;28;20505;-85
2023/01/26 11:45:02;;;;;;;202.88;130.77;;;8.60;99.90;;;;;;5039920;28;20059;-85
2023/01/26 11:47:34;;;;;;;152.15;116.30;;;7.40;99.90;;;;;;5039994;28;20103;-88
2023/01/26 11:50:23;;;;;;;301.27;156.63;;;7.50;99.90;;;;;;5041139;28;20417;-85
2023/01/26 11:53:16;;;;;;;284.20;149.30;;;7.40;99.90;;;;;;5018722;28;20296;-84
2023/01/26 11:56:15;;;;;;;291.67;151.70;;;7.50;99.90;;;;;;5047344;28;20292;-84
2023/01/26 11:58:44;;;;;;;247.63;143.10;;;7.50;99.90;;;;;;5032572;28;20048;-86
2023/01/26 12:01:19;;;;;;;297.83;154.00;;;7.60;99.90;;;;;;5024273;28;20292;-86
2023/01/26 12:03:50;;;;;;;304.17;160.07;;;7.50;99.90;;;;;;5024602;28;20315;-82
2023/01/26 12:06:29;;;;;;;335.17;165.80;;;7.70;99.90;;;;;;5031951;28;20449;-86
2023/01/26 12:09:17;;;;;;;261.17;145.57;;;8.00;99.90;;;;;;5031120;28;20292;-85
2023/01/26 12:12:16;;;;;;;244.38;144.73;;;7.00;99.90;;;;;;5031147;28;20061;-84
2023/01/26 12:15:03;;;;;;;305.60;157.97;;;7.80;99.90;;;;;;5042250;28;20126;-89
2023/01/26 12:17:43;;;;;;;323.95;161.00;;;8.60;99.90;;;;;;5058637;28;20375;-86
2023/01/26 12:20:22;;;;;;;328.10;162.63;;;8.10;99.90;;;;;;5060117;28;20045;-86
2023/01/26 12:22:59;;;;;;;335.40;163.60;;;7.90;99.90;;;;;;5062785;28;20318;-85
2023/01/26 12:25:36;;;;;;;266.92;146.65;;;8.60;99.90;;;;;;5055530;28;20370;-85
2023/01/26 12:28:26;;;;;;;240.60;140.45;;;8.20;99.90;;;;;;5071858;28;20045;-86
2023/01/26 12:31:16;;;;;;;337.08;163.10;;;8.00;99.90;;;;;;5052851;28;20129;-85
2023/01/26 12:33:42;;;;;;;263.03;144.30;;;8.10;99.90;;;;;;5064300;28;20543;-86
2023/01/26 12:36:37;;;;;;;306.30;158.38;;;8.10;99.90;;;;;;5079086;28;20322;-85
2023/01/26 12:39:09;;;;;;;310.60;156.93;;;8.10;99.90;;;;;;5062184;28;20056;-86
2023/01/26 12:42:07;;;;;;;284.47;151.43;;;8.10;99.90;;;;;;5061126;28;20111;-85
2023/01/26 12:44:38;;;;;;;309.88;161.32;;;8.10;99.90;;;;;;5013287;28;20315;-85
2023/01/26 12:47:14;;;;;;;301.73;155.83;;;8.20;99.90;;;;;;5018828;28;20060;-86
2023/01/26 12:49:50;;;;;;;274.90;152.30;;;8.90;99.90;;;;;;5038348;28;20307;-86
2023/01/26 12:52:22;;;;;;;291.17;153.47;;;8.10;99.90;;;;;;5029417;28;20293;-85
2023/01/26 12:55:03;;;;;;;304.83;156.23;;;8.10;99.90;;;;;;5021712;28;20316;-86
2023/01/26 12:57:37;;;;;;;301.13;159.20;;;8.10;99.90;;;;;;5054953;28;20626;-85
2023/01/26 13:00:16;;;;;;;314.97;159.87;;;8.00;99.90;;;;;;5020847;28;20367;-86
2023/01/26 13:02:45;;;;;;;310.88;159.45;;;8.10;99.90;;;;;;5031183;28;20292;-86
2023/01/26 13:05:29;;;;;;;303.73;155.55;;;8.70;99.90;;;;;;5018645;28;20049;-86
2023/01/26 13:07:57;;;;;;;302.90;158.38;;;8.10;99.90;;;;;;5029808;28;20128;-85
2023/01/26 13:10:28;;;;;;;314.35;158.00;;;8.00;99.90;;;;;;5021451;28;20046;-85
2023/01/26 13:12:59;;;;;;;316.50;161.20;;;8.00;99.90;;;;;;5041422;28;20392;-86
2023/01/26 13:15:30;;;;;;;301.93;159.97;;;8.00;99.90;;;;;;5048179;28;20357;-84
2023/01/26 13:17:58;;;;;;;292.30;158.57;;;7.90;99.90;;;;;;5020891;28;20307;-85
2023/01/26 13:20:26;;;;;;;315.17;161.40;;;7.70;99.90;;;;;;5040027;28;20784;-85
2023/01/26 13:22:52;;;;;;;310.53;161.93;;;8.80;99.90;;;;;;5059872;28;20357;-85